sensor_id;sensor_type;location;lat;lon;timestamp;temperature;humidity
49148;DHT22;41980;45.550;12.070;2023-02-22T00:00:56;10.20;81.60
49148;DHT22;41980;45.550;12.070;2023-02-22T00:07:02;10.20;80.80
49148;DHT22;41980;45.550;12.070;2023-02-22T00:13:05;10.20;80.70
49148;DHT22;41980;45.550;12.070;2023-02-22T00:19:07;10.20;80.70
49148;DHT22;41980;45.550;12.070;2023-02-22T00:25:12;10.20;80.60
49148;DHT22;41980;45.550;12.070;2023-02-22T00:31:15;10.20;81.30
49148;DHT22;41980;45.550;12.070;2023-02-22T00:37:17;10.20;80.90
49148;DHT22;41980;45.550;12.070;2023-02-22T00:43:19;10.10;80.80
49148;DHT22;41980;45.550;12.070;2023-02-22T00:49:23;10.10;80.80
49148;DHT22;41980;45.550;12.070;2023-02-22T00:55:30;10.10;80.90
49148;DHT22;41980;45.550;12.070;2023-02-22T01:01:32;10.10;80.90
49148;DHT22;41980;45.550;12.070;2023-02-22T01:07:35;10.00;80.70
49148;DHT22;41980;45.550;12.070;2023-02-22T01:13:37;10.00;80.70
49148;DHT22;41980;45.550;12.070;2023-02-22T01:19:39;10.00;80.70
49148;DHT22;41980;45.550;12.070;2023-02-22T01:25:43;10.00;80.80
49148;DHT22;41980;45.550;12.070;2023-02-22T01:31:51;10.00;80.80
49148;DHT22;41980;45.550;12.070;2023-02-22T01:37:55;10.00;80.80
49148;DHT22;41980;45.550;12.070;2023-02-22T01:50:18;9.90;81.00
49148;DHT22;41980;45.550;12.070;2023-02-22T01:56:25;9.90;80.80
49148;DHT22;41980;45.550;12.070;2023-02-22T02:02:28;9.80;80.90
49148;DHT22;41980;45.550;12.070;2023-02-22T02:08:36;9.80;80.90
49148;DHT22;41980;45.550;12.070;2023-02-22T02:14:40;9.70;80.90
49148;DHT22;41980;45.550;12.070;2023-02-22T02:20:52;9.70;80.90
49148;DHT22;41980;45.550;12.070;2023-02-22T02:51:35;9.30;81.30
49148;DHT22;41980;45.550;12.070;2023-02-22T02:57:38;9.30;81.40
49148;DHT22;41980;45.550;12.070;2023-02-22T03:03:45;9.30;81.20
49148;DHT22;41980;45.550;12.070;2023-02-22T03:28:24;9.40;81.20
49148;DHT22;41980;45.550;12.070;2023-02-22T03:34:32;9.30;81.10
49148;DHT22;41980;45.550;12.070;2023-02-22T03:40:40;9.30;81.20
49148;DHT22;41980;45.550;12.070;2023-02-22T03:46:48;9.30;81.30
49148;DHT22;41980;45.550;12.070;2023-02-22T03:52:51;9.30;81.20
49148;DHT22;41980;45.550;12.070;2023-02-22T03:59:01;9.30;81.30
49148;DHT22;41980;45.550;12.070;2023-02-22T04:05:04;9.40;81.30
49148;DHT22;41980;45.550;12.070;2023-02-22T04:11:06;9.40;81.20
49148;DHT22;41980;45.550;12.070;2023-02-22T04:17:09;9.40;81.30
49148;DHT22;41980;45.550;12.070;2023-02-22T04:23:11;9.40;81.60
49148;DHT22;41980;45.550;12.070;2023-02-22T04:29:15;9.40;81.20
49148;DHT22;41980;45.550;12.070;2023-02-22T04:35:19;9.40;81.30
49148;DHT22;41980;45.550;12.070;2023-02-22T04:41:21;9.40;81.70
49148;DHT22;41980;45.550;12.070;2023-02-22T04:47:25;9.30;81.20
49148;DHT22;41980;45.550;12.070;2023-02-22T04:53:27;9.30;81.70
49148;DHT22;41980;45.550;12.070;2023-02-22T04:59:30;9.30;81.40
49148;DHT22;41980;45.550;12.070;2023-02-22T05:05:35;9.30;81.30
49148;DHT22;41980;45.550;12.070;2023-02-22T05:11:37;9.30;81.30
49148;DHT22;41980;45.550;12.070;2023-02-22T05:17:39;9.30;81.30
49148;DHT22;41980;45.550;12.070;2023-02-22T05:23:41;9.40;81.60
49148;DHT22;41980;45.550;12.070;2023-02-22T05:29:43;9.40;81.30
49148;DHT22;41980;45.550;12.070;2023-02-22T05:35:45;9.40;81.30
49148;DHT22;41980;45.550;12.070;2023-02-22T05:41:46;9.40;81.40
49148;DHT22;41980;45.550;12.070;2023-02-22T05:47:49;9.40;81.40
49148;DHT22;41980;45.550;12.070;2023-02-22T05:53:51;9.40;81.30
49148;DHT22;41980;45.550;12.070;2023-02-22T05:59:53;9.30;81.40
49148;DHT22;41980;45.550;12.070;2023-02-22T06:05:54;9.30;81.50
49148;DHT22;41980;45.550;12.070;2023-02-22T06:11:56;9.30;81.50
49148;DHT22;41980;45.550;12.070;2023-02-22T06:17:59;9.30;81.70
49148;DHT22;41980;45.550;12.070;2023-02-22T06:24:01;9.30;81.60
49148;DHT22;41980;45.550;12.070;2023-02-22T06:30:06;9.40;81.50
49148;DHT22;41980;45.550;12.070;2023-02-22T06:36:08;9.40;81.50
49148;DHT22;41980;45.550;12.070;2023-02-22T06:42:11;9.50;81.40
49148;DHT22;41980;45.550;12.070;2023-02-22T06:48:13;9.50;81.30
49148;DHT22;41980;45.550;12.070;2023-02-22T06:54:15;9.50;81.40
49148;DHT22;41980;45.550;12.070;2023-02-22T07:00:20;9.50;81.10
49148;DHT22;41980;45.550;12.070;2023-02-22T07:06:22;9.60;81.00
49148;DHT22;41980;45.550;12.070;2023-02-22T07:12:24;9.60;81.00
49148;DHT22;41980;45.550;12.070;2023-02-22T07:18:26;9.70;81.00
49148;DHT22;41980;45.550;12.070;2023-02-22T07:24:28;9.70;81.00
49148;DHT22;41980;45.550;12.070;2023-02-22T07:30:31;9.80;81.00
49148;DHT22;41980;45.550;12.070;2023-02-22T07:36:34;9.90;81.00
49148;DHT22;41980;45.550;12.070;2023-02-22T07:48:41;10.00;81.10
49148;DHT22;41980;45.550;12.070;2023-02-22T07:54:45;10.20;81.10
49148;DHT22;41980;45.550;12.070;2023-02-22T08:00:48;10.50;80.80
49148;DHT22;41980;45.550;12.070;2023-02-22T08:06:50;10.60;80.50
49148;DHT22;41980;45.550;12.070;2023-02-22T08:12:52;10.80;80.20
49148;DHT22;41980;45.550;12.070;2023-02-22T08:18:54;10.90;79.80
49148;DHT22;41980;45.550;12.070;2023-02-22T08:24:56;11.20;79.80
49148;DHT22;41980;45.550;12.070;2023-02-22T08:30:59;11.30;79.20
49148;DHT22;41980;45.550;12.070;2023-02-22T08:37:01;11.50;79.30
49148;DHT22;41980;45.550;12.070;2023-02-22T08:43:04;11.50;78.20
49148;DHT22;41980;45.550;12.070;2023-02-22T08:49:07;11.70;78.70
49148;DHT22;41980;45.550;12.070;2023-02-22T08:55:09;11.80;78.40
49148;DHT22;41980;45.550;12.070;2023-02-22T09:01:11;11.90;78.10
49148;DHT22;41980;45.550;12.070;2023-02-22T09:07:16;12.30;77.80
49148;DHT22;41980;45.550;12.070;2023-02-22T09:13:19;12.60;78.10
49148;DHT22;41980;45.550;12.070;2023-02-22T09:19:21;12.90;77.70
49148;DHT22;41980;45.550;12.070;2023-02-22T09:25:23;13.10;77.80
49148;DHT22;41980;45.550;12.070;2023-02-22T09:31:25;13.10;76.60
49148;DHT22;41980;45.550;12.070;2023-02-22T09:37:27;13.00;76.40
49148;DHT22;41980;45.550;12.070;2023-02-22T09:49:41;13.10;76.10
49148;DHT22;41980;45.550;12.070;2023-02-22T09:55:50;13.20;74.50
49148;DHT22;41980;45.550;12.070;2023-02-22T10:01:59;13.10;75.00
49148;DHT22;41980;45.550;12.070;2023-02-22T10:08:09;13.30;75.00
49148;DHT22;41980;45.550;12.070;2023-02-22T10:26:39;13.10;74.30
49148;DHT22;41980;45.550;12.070;2023-02-22T10:32:44;13.00;74.20
49148;DHT22;41980;45.550;12.070;2023-02-22T10:44:55;13.50;69.90
49148;DHT22;41980;45.550;12.070;2023-02-22T10:51:00;14.10;73.40
49148;DHT22;41980;45.550;12.070;2023-02-22T10:57:03;14.30;72.20
49148;DHT22;41980;45.550;12.070;2023-02-22T11:03:17;14.50;72.10
49148;DHT22;41980;45.550;12.070;2023-02-22T11:09:21;14.50;72.30
49148;DHT22;41980;45.550;12.070;2023-02-22T11:15:27;14.50;71.60
49148;DHT22;41980;45.550;12.070;2023-02-22T11:21:30;14.60;71.80
49148;DHT22;41980;45.550;12.070;2023-02-22T11:27:38;14.60;72.10
49148;DHT22;41980;45.550;12.070;2023-02-22T11:33:47;14.50;69.60
49148;DHT22;41980;45.550;12.070;2023-02-22T11:46:11;14.40;71.90
49148;DHT22;41980;45.550;12.070;2023-02-22T12:10:47;14.70;71.40
49148;DHT22;41980;45.550;12.070;2023-02-22T12:35:34;15.00;70.30
49148;DHT22;41980;45.550;12.070;2023-02-22T12:41:43;15.00;71.40
49148;DHT22;41980;45.550;12.070;2023-02-22T12:47:59;15.00;71.10
49148;DHT22;41980;45.550;12.070;2023-02-22T13:00:16;14.80;70.30
49148;DHT22;41980;45.550;12.070;2023-02-22T13:24:54;14.80;67.80
49148;DHT22;41980;45.550;12.070;2023-02-22T13:55:35;14.30;71.30
49148;DHT22;41980;45.550;12.070;2023-02-22T14:07:47;14.20;71.40
49148;DHT22;41980;45.550;12.070;2023-02-22T14:20:00;14.20;71.40
49148;DHT22;41980;45.550;12.070;2023-02-22T14:32:11;14.10;71.90
49148;DHT22;41980;45.550;12.070;2023-02-22T14:38:17;14.00;71.80
49148;DHT22;41980;45.550;12.070;2023-02-22T14:44:24;14.00;72.30
49148;DHT22;41980;45.550;12.070;2023-02-22T14:56:40;13.90;72.40
49148;DHT22;41980;45.550;12.070;2023-02-22T15:02:46;13.90;72.40
49148;DHT22;41980;45.550;12.070;2023-02-22T15:15:12;13.60;72.80
49148;DHT22;41980;45.550;12.070;2023-02-22T15:21:16;13.50;72.90
49148;DHT22;41980;45.550;12.070;2023-02-22T15:27:19;13.40;73.00
49148;DHT22;41980;45.550;12.070;2023-02-22T15:33:28;13.40;72.90
49148;DHT22;41980;45.550;12.070;2023-02-22T15:39:34;13.30;73.10
49148;DHT22;41980;45.550;12.070;2023-02-22T15:45:45;13.20;73.20
49148;DHT22;41980;45.550;12.070;2023-02-22T15:51:58;13.10;73.40
49148;DHT22;41980;45.550;12.070;2023-02-22T15:58:09;13.00;73.40
49148;DHT22;41980;45.550;12.070;2023-02-22T16:04:15;12.90;73.60
49148;DHT22;41980;45.550;12.070;2023-02-22T16:16:27;12.60;74.00
49148;DHT22;41980;45.550;12.070;2023-02-22T16:22:34;12.50;74.00
49148;DHT22;41980;45.550;12.070;2023-02-22T16:28:47;12.40;74.20
49148;DHT22;41980;45.550;12.070;2023-02-22T16:34:52;12.30;74.30
49148;DHT22;41980;45.550;12.070;2023-02-22T16:40:55;12.20;74.50
49148;DHT22;41980;45.550;12.070;2023-02-22T16:46:59;12.10;74.50
49148;DHT22;41980;45.550;12.070;2023-02-22T16:53:01;12.00;74.70
49148;DHT22;41980;45.550;12.070;2023-02-22T16:59:08;12.00;74.70
49148;DHT22;41980;45.550;12.070;2023-02-22T17:05:13;12.00;74.80
49148;DHT22;41980;45.550;12.070;2023-02-22T17:11:16;11.90;74.90
49148;DHT22;41980;45.550;12.070;2023-02-22T17:17:18;11.90;74.90
49148;DHT22;41980;45.550;12.070;2023-02-22T17:23:21;11.80;74.90
49148;DHT22;41980;45.550;12.070;2023-02-22T17:29:24;11.90;75.00
49148;DHT22;41980;45.550;12.070;2023-02-22T17:35:30;11.90;75.00
49148;DHT22;41980;45.550;12.070;2023-02-22T17:41:34;11.90;74.90
49148;DHT22;41980;45.550;12.070;2023-02-22T17:47:36;11.90;74.90
49148;DHT22;41980;45.550;12.070;2023-02-22T17:53:38;11.90;74.90
49148;DHT22;41980;45.550;12.070;2023-02-22T17:59:40;11.90;74.80
49148;DHT22;41980;45.550;12.070;2023-02-22T18:05:46;11.90;74.80
49148;DHT22;41980;45.550;12.070;2023-02-22T18:11:48;11.90;74.80
49148;DHT22;41980;45.550;12.070;2023-02-22T18:17:50;11.90;74.80
49148;DHT22;41980;45.550;12.070;2023-02-22T18:23:52;11.90;74.90
49148;DHT22;41980;45.550;12.070;2023-02-22T18:29:55;11.80;75.10
49148;DHT22;41980;45.550;12.070;2023-02-22T18:35:57;11.80;75.20
49148;DHT22;41980;45.550;12.070;2023-02-22T18:42:00;11.70;75.30
49148;DHT22;41980;45.550;12.070;2023-02-22T18:48:02;11.70;75.40
49148;DHT22;41980;45.550;12.070;2023-02-22T18:54:06;11.60;75.40
49148;DHT22;41980;45.550;12.070;2023-02-22T19:00:10;11.70;75.40
49148;DHT22;41980;45.550;12.070;2023-02-22T19:06:12;11.60;75.50
49148;DHT22;41980;45.550;12.070;2023-02-22T19:12:15;11.70;75.50
49148;DHT22;41980;45.550;12.070;2023-02-22T19:18:17;11.70;75.40
49148;DHT22;41980;45.550;12.070;2023-02-22T19:24:21;11.60;75.40
49148;DHT22;41980;45.550;12.070;2023-02-22T19:30:24;11.60;75.60
49148;DHT22;41980;45.550;12.070;2023-02-22T19:36:28;11.60;75.60
49148;DHT22;41980;45.550;12.070;2023-02-22T19:42:30;11.70;75.50
49148;DHT22;41980;45.550;12.070;2023-02-22T19:48:32;11.60;75.50
49148;DHT22;41980;45.550;12.070;2023-02-22T19:54:34;11.60;75.60
49148;DHT22;41980;45.550;12.070;2023-02-22T20:00:36;11.50;75.70
49148;DHT22;41980;45.550;12.070;2023-02-22T20:06:40;11.50;75.70
49148;DHT22;41980;45.550;12.070;2023-02-22T20:12:43;11.50;75.80
49148;DHT22;41980;45.550;12.070;2023-02-22T20:18:46;11.40;75.90
49148;DHT22;41980;45.550;12.070;2023-02-22T20:24:48;11.40;76.10
49148;DHT22;41980;45.550;12.070;2023-02-22T20:30:51;11.40;76.10
49148;DHT22;41980;45.550;12.070;2023-02-22T20:36:54;11.40;76.20
49148;DHT22;41980;45.550;12.070;2023-02-22T20:42:56;11.30;76.30
49148;DHT22;41980;45.550;12.070;2023-02-22T20:48:59;11.30;76.20
49148;DHT22;41980;45.550;12.070;2023-02-22T20:55:02;11.20;76.40
49148;DHT22;41980;45.550;12.070;2023-02-22T21:01:06;11.20;76.50
49148;DHT22;41980;45.550;12.070;2023-02-22T21:07:09;11.20;76.40
49148;DHT22;41980;45.550;12.070;2023-02-22T21:13:11;11.20;76.50
49148;DHT22;41980;45.550;12.070;2023-02-22T21:19:14;11.20;76.60
49148;DHT22;41980;45.550;12.070;2023-02-22T21:25:17;11.10;76.60
49148;DHT22;41980;45.550;12.070;2023-02-22T21:31:23;11.10;76.60
49148;DHT22;41980;45.550;12.070;2023-02-22T21:37:25;11.10;76.70
49148;DHT22;41980;45.550;12.070;2023-02-22T21:43:27;11.10;76.90
49148;DHT22;41980;45.550;12.070;2023-02-22T21:49:29;11.10;76.80
49148;DHT22;41980;45.550;12.070;2023-02-22T21:55:32;11.10;76.70
49148;DHT22;41980;45.550;12.070;2023-02-22T22:01:37;11.10;76.80
49148;DHT22;41980;45.550;12.070;2023-02-22T22:07:39;11.10;76.70
49148;DHT22;41980;45.550;12.070;2023-02-22T22:13:45;11.10;76.70
49148;DHT22;41980;45.550;12.070;2023-02-22T22:19:48;11.10;76.80
49148;DHT22;41980;45.550;12.070;2023-02-22T22:26:00;11.10;76.80
49148;DHT22;41980;45.550;12.070;2023-02-22T22:32:02;11.00;76.80
49148;DHT22;41980;45.550;12.070;2023-02-22T22:38:06;11.10;76.70
49148;DHT22;41980;45.550;12.070;2023-02-22T22:44:11;11.00;76.70
49148;DHT22;41980;45.550;12.070;2023-02-22T22:50:17;11.00;77.00
49148;DHT22;41980;45.550;12.070;2023-02-22T22:56:21;11.00;76.90
49148;DHT22;41980;45.550;12.070;2023-02-22T23:02:27;11.00;76.90
49148;DHT22;41980;45.550;12.070;2023-02-22T23:08:31;10.90;77.10
49148;DHT22;41980;45.550;12.070;2023-02-22T23:14:44;10.90;77.20
49148;DHT22;41980;45.550;12.070;2023-02-22T23:20:48;10.80;77.30
49148;DHT22;41980;45.550;12.070;2023-02-22T23:26:55;10.70;77.60
49148;DHT22;41980;45.550;12.070;2023-02-22T23:33:00;10.70;77.50
49148;DHT22;41980;45.550;12.070;2023-02-22T23:39:03;10.70;77.40
49148;DHT22;41980;45.550;12.070;2023-02-22T23:45:06;10.60;77.50
49148;DHT22;41980;45.550;12.070;2023-02-22T23:51:09;10.60;77.60
49148;DHT22;41980;45.550;12.070;2023-02-22T23:57:11;10.60;77.70
